createdAt,value
2023-04-15T00:02:20.342Z,10.10
2023-04-15T00:04:49.848Z,12.60
2023-04-15T00:07:18.685Z,12.20
2023-04-15T00:09:47.181Z,10.80
2023-04-15T00:12:15.871Z,11.00
2023-04-15T00:14:45.462Z,9.60
2023-04-15T00:17:14.458Z,10.90
2023-04-15T00:19:44.757Z,8.90
2023-04-15T00:22:13.971Z,11.40
2023-04-15T00:24:43.388Z,12.00
2023-04-15T00:27:12.082Z,11.20
2023-04-15T00:29:40.720Z,8.60
2023-04-15T00:32:09.531Z,8.40
2023-04-15T00:34:38.330Z,7.40
2023-04-15T00:37:07.017Z,6.90
2023-04-15T00:39:35.795Z,8.70
2023-04-15T00:42:07.595Z,7.10
2023-04-15T00:44:36.540Z,7.70
2023-04-15T00:47:05.226Z,4.80
2023-04-15T00:49:33.777Z,9.10
2023-04-15T00:52:04.582Z,7.90
2023-04-15T00:54:33.399Z,4.70
2023-04-15T00:57:02.430Z,7.00
2023-04-15T00:59:31.190Z,6.40
2023-04-15T01:02:00.166Z,7.70
2023-04-15T01:04:29.247Z,7.70
2023-04-15T01:06:58.073Z,6.40
2023-04-15T01:09:26.668Z,6.40
2023-04-15T01:11:55.458Z,7.00
2023-04-15T01:14:24.334Z,7.60
2023-04-15T01:16:53.418Z,6.00
2023-04-15T01:19:22.245Z,7.70
2023-04-15T01:21:51.115Z,9.70
2023-04-15T01:24:19.795Z,7.00
2023-04-15T01:26:50.330Z,6.80
2023-04-15T01:29:19.091Z,7.50
2023-04-15T01:31:56.426Z,6.20
2023-04-15T01:34:28.337Z,6.80
2023-04-15T01:36:57.122Z,5.90
2023-04-15T01:39:25.807Z,7.40
2023-04-15T01:42:00.025Z,6.60
2023-04-15T01:44:28.718Z,11.30
2023-04-15T01:46:57.488Z,10.80
2023-04-15T01:49:26.179Z,6.40
2023-04-15T01:51:56.203Z,7.30
2023-04-15T01:54:24.888Z,7.60
2023-04-15T01:56:54.096Z,8.10
2023-04-15T01:59:23.191Z,11.20
2023-04-15T02:01:52.725Z,6.90
2023-04-15T02:04:22.082Z,9.70
2023-04-15T02:06:50.760Z,7.40
2023-04-15T02:09:19.448Z,9.10
2023-04-15T02:11:48.142Z,9.10
2023-04-15T02:14:16.740Z,8.80
2023-04-15T02:16:45.446Z,8.20
2023-04-15T02:19:16.850Z,8.60
2023-04-15T02:21:45.529Z,7.30
2023-04-15T02:24:14.229Z,11.60
2023-04-15T02:26:43.233Z,7.50
2023-04-15T02:29:12.404Z,9.90
2023-04-15T02:31:42.864Z,7.40
2023-04-15T02:34:11.628Z,8.90
2023-04-15T02:36:41.233Z,6.00
2023-04-15T02:39:10.220Z,7.00
2023-04-15T02:41:40.238Z,7.70
2023-04-15T02:44:11.422Z,7.90
2023-04-15T02:46:41.711Z,9.30
2023-04-15T02:49:11.401Z,7.30
2023-04-15T02:51:40.189Z,8.50
2023-04-15T02:54:09.303Z,8.70
2023-04-15T02:56:38.079Z,6.80
2023-04-15T02:59:06.969Z,6.10
2023-04-15T03:01:35.675Z,6.50
2023-04-15T03:04:05.118Z,7.20
2023-04-15T03:06:34.343Z,7.60
2023-04-15T03:09:04.060Z,7.00
2023-04-15T03:11:41.100Z,8.90
2023-04-15T03:14:11.546Z,9.10
2023-04-15T03:16:43.620Z,7.30
2023-04-15T03:19:13.437Z,7.30
2023-04-15T03:21:43.748Z,7.90
2023-04-15T03:24:12.234Z,10.10
2023-04-15T03:26:41.027Z,8.20
2023-04-15T03:29:12.989Z,6.80
2023-04-15T03:31:42.309Z,8.10
2023-04-15T03:34:10.959Z,8.30
2023-04-15T03:36:39.438Z,7.80
2023-04-15T03:39:08.392Z,8.80
2023-04-15T03:41:37.117Z,7.40
2023-04-15T03:44:05.914Z,7.90
2023-04-15T03:46:34.569Z,7.10
2023-04-15T03:49:03.398Z,8.00
2023-04-15T03:51:32.590Z,7.00
2023-04-15T03:54:02.556Z,8.30
2023-04-15T03:56:31.377Z,10.00
2023-04-15T03:59:00.230Z,8.30
2023-04-15T04:01:29.565Z,7.40
2023-04-15T04:03:58.141Z,7.80
2023-04-15T04:06:26.933Z,11.10
2023-04-15T04:08:56.336Z,7.00
2023-04-15T04:11:25.216Z,7.90
2023-04-15T04:13:54.225Z,11.10
2023-04-15T04:16:25.306Z,9.80
2023-04-15T04:18:54.136Z,8.60
2023-04-15T04:21:23.022Z,7.40
2023-04-15T04:23:51.720Z,8.20
2023-04-15T04:26:20.496Z,8.90
2023-04-15T04:28:49.184Z,8.20
2023-04-15T04:31:17.876Z,12.90
2023-04-15T04:33:46.647Z,9.00
2023-04-15T04:36:15.452Z,9.70
2023-04-15T04:38:44.221Z,9.80
2023-04-15T04:41:15.072Z,8.40
2023-04-15T04:43:43.738Z,7.70
2023-04-15T04:46:13.278Z,7.20
2023-04-15T04:48:41.821Z,6.50
2023-04-15T04:51:10.404Z,8.40
2023-04-15T04:53:39.162Z,6.90
2023-04-15T04:56:08.186Z,7.10
2023-04-15T04:58:36.969Z,8.40
2023-04-15T05:01:06.097Z,7.10
2023-04-15T05:03:35.196Z,7.00
2023-04-15T05:06:06.741Z,10.90
2023-04-15T05:08:35.505Z,11.40
2023-04-15T05:11:04.181Z,11.50
2023-04-15T05:13:32.765Z,9.50
2023-04-15T05:16:01.680Z,8.40
2023-04-15T05:18:30.868Z,8.60
2023-04-15T05:20:59.750Z,8.50
2023-04-15T05:23:28.413Z,10.00
2023-04-15T05:25:57.030Z,9.10
2023-04-15T05:28:25.907Z,6.80
2023-04-15T05:30:54.843Z,9.50
2023-04-15T05:33:23.683Z,8.80
2023-04-15T05:35:52.584Z,10.90
2023-04-15T05:38:21.147Z,12.60
2023-04-15T05:40:49.726Z,12.20
2023-04-15T05:43:18.420Z,11.70
2023-04-15T05:45:47.015Z,11.90
2023-04-15T05:48:15.788Z,11.80
2023-04-15T05:50:44.775Z,13.20
2023-04-15T05:53:13.429Z,9.40
2023-04-15T05:55:42.142Z,12.10
2023-04-15T05:58:12.050Z,9.90
2023-04-15T06:00:40.715Z,7.80
2023-04-15T06:03:09.334Z,10.70
2023-04-15T06:05:38.009Z,13.00
2023-04-15T06:08:06.897Z,11.20
2023-04-15T06:10:37.031Z,11.80
2023-04-15T06:13:06.306Z,9.30
2023-04-15T06:15:34.892Z,15.80
2023-04-15T06:18:03.468Z,8.70
2023-04-15T06:20:32.178Z,10.00
2023-04-15T06:23:00.739Z,9.30
2023-04-15T06:25:29.219Z,9.60
2023-04-15T06:27:57.899Z,10.40
2023-04-15T06:30:26.686Z,9.70
2023-04-15T06:32:56.203Z,7.20
2023-04-15T06:35:24.785Z,10.40
2023-04-15T06:37:53.564Z,10.70
2023-04-15T06:40:22.345Z,9.90
2023-04-15T06:42:51.557Z,8.90
2023-04-15T06:45:20.122Z,8.70
2023-04-15T06:47:48.815Z,8.40
2023-04-15T06:50:17.791Z,8.80
2023-04-15T06:52:46.709Z,7.70
2023-04-15T06:55:15.491Z,9.80
2023-04-15T06:57:44.166Z,7.10
2023-04-15T07:00:13.978Z,13.90
2023-04-15T07:02:42.804Z,7.30
2023-04-15T07:05:11.644Z,7.30
2023-04-15T07:07:40.367Z,6.80
2023-04-15T07:10:10.368Z,7.00
2023-04-15T07:12:39.150Z,7.70
2023-04-15T07:15:08.120Z,9.40
2023-04-15T07:17:37.700Z,9.50
2023-04-15T07:20:07.290Z,8.00
2023-04-15T07:22:35.920Z,10.30
2023-04-15T07:25:05.228Z,8.50
2023-04-15T07:27:33.903Z,12.60
2023-04-15T07:30:02.994Z,10.70
2023-04-15T07:32:32.425Z,8.10
2023-04-15T07:35:02.495Z,6.60
2023-04-15T07:37:31.333Z,9.60
2023-04-15T07:39:59.898Z,10.80
2023-04-15T07:42:29.605Z,13.70
2023-04-15T07:44:58.378Z,7.80
2023-04-15T07:47:27.520Z,10.60
2023-04-15T07:49:56.369Z,10.60
2023-04-15T07:52:25.059Z,8.80
2023-04-15T07:54:53.746Z,8.90
2023-04-15T07:57:22.417Z,21.70
2023-04-15T07:59:51.001Z,8.00
2023-04-15T08:02:22.739Z,7.00
2023-04-15T08:04:51.937Z,9.00
2023-04-15T08:07:21.568Z,5.80
2023-04-15T08:09:50.258Z,5.60
2023-04-15T08:12:18.843Z,4.20
2023-04-15T08:14:47.723Z,6.30
2023-04-15T08:17:16.443Z,4.00
2023-04-15T08:19:45.195Z,3.90
2023-04-15T08:22:17.701Z,4.70
2023-04-15T08:24:47.576Z,4.60
2023-04-15T08:27:16.157Z,3.20
2023-04-15T08:29:46.105Z,3.40
2023-04-15T08:32:15.181Z,4.90
2023-04-15T08:34:44.054Z,3.80
2023-04-15T08:37:12.942Z,4.70
2023-04-15T08:39:41.846Z,3.20
2023-04-15T08:42:17.276Z,4.10
2023-04-15T08:44:46.071Z,3.80
2023-04-15T08:47:18.001Z,5.30
2023-04-15T08:49:47.129Z,2.90
2023-04-15T08:52:16.629Z,3.20
2023-04-15T08:54:45.520Z,4.30
2023-04-15T08:57:14.702Z,3.20
2023-04-15T08:59:44.212Z,4.50
2023-04-15T09:02:12.812Z,3.10
2023-04-15T09:04:41.688Z,2.30
2023-04-15T09:07:10.183Z,2.40
2023-04-15T09:09:40.756Z,3.00
2023-04-15T09:12:10.710Z,4.20
2023-04-15T09:14:40.984Z,3.10
2023-04-15T09:17:12.109Z,3.60
2023-04-15T09:19:40.866Z,3.30
2023-04-15T09:22:09.537Z,4.10
2023-04-15T09:24:39.815Z,5.30
2023-04-15T09:27:08.494Z,2.30
2023-04-15T09:29:37.770Z,2.60
2023-04-15T09:32:14.045Z,1.90
2023-04-15T09:37:11.500Z,1.80
2023-04-15T09:39:51.342Z,2.30
2023-04-15T09:42:25.758Z,3.60
2023-04-15T09:44:54.436Z,2.20
2023-04-15T09:47:32.639Z,3.10
2023-04-15T09:50:02.125Z,1.90
2023-04-15T09:52:31.433Z,4.90
2023-04-15T09:55:00.312Z,3.20
2023-04-15T09:57:36.785Z,2.40
2023-04-15T10:00:08.513Z,1.80
2023-04-15T10:02:39.964Z,2.60
2023-04-15T10:05:11.203Z,2.00
2023-04-15T10:07:41.453Z,2.70
2023-04-15T10:10:11.383Z,4.90
2023-04-15T10:12:41.961Z,3.20
2023-04-15T10:15:17.808Z,2.00
2023-04-15T10:17:47.112Z,2.40
2023-04-15T10:20:16.100Z,3.30
2023-04-15T10:22:44.738Z,4.50
2023-04-15T10:25:13.638Z,3.50
2023-04-15T10:27:42.629Z,4.00
2023-04-15T10:30:11.931Z,3.40
2023-04-15T10:32:41.354Z,1.50
2023-04-15T10:35:10.320Z,3.70
2023-04-15T10:37:39.319Z,2.50
2023-04-15T10:40:43.420Z,2.10
2023-04-15T10:43:12.185Z,2.30
2023-04-15T10:45:40.901Z,4.50
2023-04-15T10:48:09.648Z,3.60
2023-04-15T10:50:39.700Z,2.30
2023-04-15T10:53:10.462Z,7.60
2023-04-15T10:55:39.218Z,3.80
2023-04-15T10:58:08.419Z,2.20
2023-04-15T11:00:37.910Z,1.80
2023-04-15T11:03:08.390Z,4.10
2023-04-15T11:05:39.989Z,2.50
2023-04-15T11:08:12.164Z,2.50
2023-04-15T11:10:40.848Z,4.40
2023-04-15T11:13:12.288Z,3.80
2023-04-15T11:15:42.004Z,4.00
2023-04-15T11:18:15.603Z,2.00
2023-04-15T11:20:50.986Z,1.60
2023-04-15T11:23:20.836Z,1.80
2023-04-15T11:25:49.636Z,2.60
2023-04-15T11:28:18.125Z,1.90
2023-04-15T11:30:46.908Z,6.10
2023-04-15T11:33:15.716Z,3.70
2023-04-15T11:35:44.388Z,2.20
2023-04-15T11:38:14.208Z,2.60
2023-04-15T11:40:46.245Z,1.90
2023-04-15T11:43:18.933Z,2.10
2023-04-15T11:45:58.548Z,2.90
2023-04-15T11:48:29.050Z,3.40
2023-04-15T11:51:15.712Z,1.80
2023-04-15T11:53:48.031Z,2.20
2023-04-15T11:56:24.617Z,3.20
2023-04-15T11:58:57.460Z,2.10
2023-04-15T12:01:36.507Z,3.50
2023-04-15T12:04:18.998Z,1.20
2023-04-15T12:06:49.282Z,3.20
2023-04-15T12:09:18.184Z,2.10
2023-04-15T12:11:48.525Z,1.80
2023-04-15T12:14:30.092Z,1.80
2023-04-15T12:17:01.814Z,2.20
2023-04-15T12:19:33.067Z,2.60
2023-04-15T12:22:06.983Z,7.30
2023-04-15T12:24:38.605Z,2.10
2023-04-15T12:27:08.947Z,3.20
2023-04-15T12:29:39.543Z,1.70
2023-04-15T12:32:15.652Z,2.10
2023-04-15T12:34:54.808Z,2.60
2023-04-15T12:37:23.863Z,2.10
2023-04-15T12:39:54.314Z,2.90
2023-04-15T12:42:23.204Z,2.10
2023-04-15T12:44:51.993Z,2.40
2023-04-15T12:47:21.012Z,3.40
2023-04-15T12:49:49.889Z,2.10
2023-04-15T12:52:18.453Z,5.60
2023-04-15T12:54:47.148Z,5.20
2023-04-15T12:57:15.936Z,2.10
2023-04-15T12:59:44.520Z,2.20
2023-04-15T13:02:14.099Z,1.60
2023-04-15T13:04:42.768Z,1.60
2023-04-15T13:07:14.051Z,1.80
2023-04-15T13:09:42.961Z,1.50
2023-04-15T13:12:14.282Z,2.30
2023-04-15T13:14:42.970Z,1.50
2023-04-15T13:17:11.870Z,2.90
2023-04-15T13:19:40.969Z,1.20
2023-04-15T13:22:10.519Z,3.70
2023-04-15T13:24:39.548Z,2.50
2023-04-15T13:27:08.754Z,1.90
2023-04-15T13:29:38.274Z,4.20
2023-04-15T13:32:07.184Z,2.20
2023-04-15T13:34:36.527Z,2.40
2023-04-15T13:37:08.969Z,1.50
2023-04-15T13:39:40.992Z,2.60
2023-04-15T13:42:10.390Z,2.00
2023-04-15T13:44:39.340Z,0.90
2023-04-15T13:47:08.266Z,1.80
2023-04-15T13:49:37.047Z,2.00
2023-04-15T13:52:06.149Z,1.70
2023-04-15T13:54:37.897Z,1.00
2023-04-15T13:57:07.210Z,1.60
2023-04-15T13:59:35.950Z,2.80
2023-04-15T14:02:04.720Z,1.60
2023-04-15T14:04:33.685Z,0.80
2023-04-15T14:07:04.612Z,1.10
2023-04-15T14:09:35.364Z,1.40
2023-04-15T14:12:05.061Z,1.00
2023-04-15T14:14:33.724Z,1.50
2023-04-15T14:17:05.096Z,1.70
2023-04-15T14:19:33.956Z,1.10
2023-04-15T14:22:03.933Z,1.50
2023-04-15T14:24:32.770Z,1.60
2023-04-15T14:27:02.585Z,1.50
2023-04-15T14:29:31.575Z,2.30
2023-04-15T14:32:04.323Z,2.30
2023-04-15T14:34:42.140Z,1.10
2023-04-15T14:37:10.941Z,1.30
2023-04-15T14:39:39.941Z,1.80
2023-04-15T14:42:08.614Z,2.30
2023-04-15T14:44:37.603Z,2.20
2023-04-15T14:47:06.709Z,1.70
2023-04-15T14:49:35.698Z,1.50
2023-04-15T14:52:04.684Z,4.30
2023-04-15T14:54:33.162Z,1.20
2023-04-15T14:57:02.671Z,2.70
2023-04-15T14:59:31.346Z,1.30
2023-04-15T15:02:00.026Z,1.60
2023-04-15T15:04:29.626Z,0.80
2023-04-15T15:06:58.228Z,1.50
2023-04-15T15:09:26.915Z,1.20
2023-04-15T15:11:57.635Z,1.40
2023-04-15T15:14:26.947Z,0.90
2023-04-15T15:16:55.835Z,2.40
2023-04-15T15:19:25.476Z,2.60
2023-04-15T15:21:54.128Z,4.70
2023-04-15T15:24:22.600Z,3.00
2023-04-15T15:26:51.707Z,1.40
2023-04-15T15:29:20.394Z,1.20
2023-04-15T15:31:49.124Z,4.20
2023-04-15T15:34:17.856Z,2.80
2023-04-15T15:36:46.430Z,1.50
2023-04-15T15:39:15.122Z,1.00
2023-04-15T15:41:43.799Z,2.20
2023-04-15T15:44:12.484Z,0.70
2023-04-15T15:46:41.400Z,1.50
2023-04-15T15:49:10.164Z,1.10
2023-04-15T15:51:38.849Z,0.90
2023-04-15T15:54:07.530Z,1.20
2023-04-15T15:56:38.797Z,1.50
2023-04-15T15:59:07.353Z,1.10
2023-04-15T16:01:35.838Z,1.80
2023-04-15T16:04:04.637Z,1.70
2023-04-15T16:06:35.102Z,1.20
2023-04-15T16:09:04.573Z,1.40
2023-04-15T16:11:33.551Z,1.50
2023-04-15T16:14:02.242Z,1.40
2023-04-15T16:16:31.137Z,0.90
2023-04-15T16:18:59.909Z,2.40
2023-04-15T16:21:28.797Z,1.90
2023-04-15T16:23:57.556Z,1.40
2023-04-15T16:26:26.289Z,1.90
2023-04-15T16:28:55.062Z,1.40
2023-04-15T16:31:23.593Z,1.80
2023-04-15T16:33:52.640Z,2.90
2023-04-15T16:36:21.415Z,1.20
2023-04-15T16:38:50.001Z,3.60
2023-04-15T16:41:19.292Z,1.20
2023-04-15T16:43:48.184Z,2.00
2023-04-15T16:46:16.955Z,1.80
2023-04-15T16:48:46.577Z,1.70
2023-04-15T16:51:15.371Z,2.90
2023-04-15T16:53:44.362Z,1.90
2023-04-15T16:56:12.957Z,2.20
2023-04-15T16:58:41.734Z,1.50
2023-04-15T17:01:10.639Z,2.10
2023-04-15T17:03:40.565Z,2.40
2023-04-15T17:06:09.221Z,3.50
2023-04-15T17:08:37.964Z,2.60
2023-04-15T17:11:06.794Z,5.40
2023-04-15T17:13:35.694Z,4.10
2023-04-15T17:16:05.436Z,7.20
2023-04-15T17:18:34.394Z,6.80
2023-04-15T17:21:03.166Z,5.90
2023-04-15T17:23:31.971Z,6.40
2023-04-15T17:26:00.748Z,6.90
2023-04-15T17:28:29.417Z,8.50
2023-04-15T17:30:57.928Z,10.90
2023-04-15T17:33:58.786Z,15.00
2023-04-15T17:36:16.265Z,14.90
2023-04-15T17:38:46.051Z,12.60
2023-04-15T17:41:14.972Z,15.00
2023-04-15T17:43:43.756Z,9.80
2023-04-15T17:46:13.899Z,9.00
2023-04-15T17:48:42.660Z,9.60
2023-04-15T17:51:13.046Z,13.20
2023-04-15T17:53:42.115Z,17.10
2023-04-15T17:56:10.778Z,12.20
2023-04-15T17:58:41.585Z,8.30
2023-04-15T18:01:10.167Z,9.80
2023-04-15T18:03:39.000Z,10.50
2023-04-15T18:06:07.956Z,13.90
2023-04-15T18:08:36.668Z,19.20
2023-04-15T18:11:05.329Z,10.50
2023-04-15T18:13:34.008Z,8.60
2023-04-15T18:16:05.196Z,8.40
2023-04-15T18:18:34.656Z,12.30
2023-04-15T18:21:03.442Z,12.70
2023-04-15T18:23:32.117Z,13.90
2023-04-15T18:26:00.804Z,12.80
2023-04-15T18:28:31.072Z,14.00
2023-04-15T18:31:00.032Z,18.70
2023-04-15T18:33:29.125Z,13.60
2023-04-15T18:35:58.006Z,13.10
2023-04-15T18:38:26.706Z,9.40
2023-04-15T18:40:55.465Z,6.80
2023-04-15T18:43:24.165Z,5.40
2023-04-15T18:45:54.982Z,6.10
2023-04-15T18:48:23.784Z,6.80
2023-04-15T18:50:54.638Z,7.70
2023-04-15T18:53:23.308Z,9.60
2023-04-15T18:55:51.884Z,15.70
2023-04-15T18:58:20.566Z,12.30
2023-04-15T19:00:49.298Z,12.40
2023-04-15T19:03:18.016Z,15.80
2023-04-15T19:05:46.722Z,14.50
2023-04-15T19:08:15.614Z,13.60
2023-04-15T19:10:44.192Z,12.20
2023-04-15T19:13:12.811Z,12.10
2023-04-15T19:15:41.478Z,10.10
2023-04-15T19:18:11.190Z,14.70
2023-04-15T19:20:40.324Z,16.70
2023-04-15T19:23:09.154Z,17.30
2023-04-15T19:25:38.683Z,23.40
2023-04-15T19:28:07.447Z,22.10
2023-04-15T19:30:36.985Z,18.40
2023-04-15T19:33:05.732Z,18.60
2023-04-15T19:35:34.421Z,14.60
2023-04-15T19:38:03.525Z,12.20
2023-04-15T19:40:32.197Z,12.40
2023-04-15T19:43:01.091Z,11.80
2023-04-15T19:45:29.975Z,10.50
2023-04-15T19:47:59.246Z,11.60
2023-04-15T19:50:28.072Z,11.80
2023-04-15T19:52:56.744Z,11.70
2023-04-15T19:55:25.579Z,13.10
2023-04-15T19:57:54.120Z,10.50
2023-04-15T20:00:22.913Z,10.70
2023-04-15T20:02:51.615Z,11.40
2023-04-15T20:05:20.693Z,10.70
2023-04-15T20:07:52.344Z,12.20
2023-04-15T20:10:21.434Z,11.00
2023-04-15T20:12:52.738Z,9.40
2023-04-15T20:15:24.256Z,11.70
2023-04-15T20:17:53.186Z,14.60
2023-04-15T20:20:24.454Z,10.40
2023-04-15T20:22:53.473Z,10.40
2023-04-15T20:25:22.258Z,13.40
2023-04-15T20:27:51.137Z,12.40
2023-04-15T20:30:19.908Z,9.30
2023-04-15T20:32:48.659Z,9.70
2023-04-15T20:35:17.485Z,8.70
2023-04-15T20:37:46.268Z,8.80
2023-04-15T20:40:15.055Z,11.90
2023-04-15T20:42:44.055Z,10.20
2023-04-15T20:45:12.838Z,11.20
2023-04-15T20:47:41.860Z,14.80
2023-04-15T20:50:11.461Z,14.50
2023-04-15T20:52:40.270Z,14.10
2023-04-15T20:55:09.529Z,11.40
2023-04-15T20:57:37.996Z,15.20
2023-04-15T21:00:09.880Z,14.80
2023-04-15T21:02:38.750Z,15.10
2023-04-15T21:05:08.368Z,15.90
2023-04-15T21:07:37.021Z,13.10
2023-04-15T21:10:06.104Z,14.90
2023-04-15T21:12:34.830Z,17.50
2023-04-15T21:15:04.179Z,15.10
2023-04-15T21:17:35.633Z,19.00
2023-04-15T21:20:04.770Z,15.00
2023-04-15T21:22:33.456Z,18.50
2023-04-15T21:25:01.936Z,14.40
2023-04-15T21:27:30.812Z,16.50
2023-04-15T21:29:59.467Z,17.20
2023-04-15T21:32:28.212Z,13.10
2023-04-15T21:34:57.087Z,15.80
2023-04-15T21:37:26.167Z,17.50
2023-04-15T21:39:55.060Z,22.00
2023-04-15T21:42:24.109Z,16.40
2023-04-15T21:44:52.830Z,16.30
2023-04-15T21:47:21.613Z,18.10
2023-04-15T21:49:51.328Z,16.50
2023-04-15T21:52:19.915Z,16.70
2023-04-15T21:54:48.386Z,20.50
2023-04-15T21:57:17.392Z,21.60
2023-04-15T21:59:46.168Z,22.00
2023-04-15T22:02:14.819Z,20.30
2023-04-15T22:04:43.539Z,20.10
2023-04-15T22:07:12.121Z,20.90
2023-04-15T22:09:40.922Z,16.60
2023-04-15T22:12:09.694Z,16.10
2023-04-15T22:14:38.434Z,14.00
2023-04-15T22:17:07.279Z,18.60
2023-04-15T22:19:35.958Z,17.50
2023-04-15T22:22:04.637Z,17.60
2023-04-15T22:24:39.984Z,21.10
2023-04-15T22:27:09.987Z,15.90
2023-04-15T22:29:38.676Z,15.80
2023-04-15T22:32:07.780Z,17.00
2023-04-15T22:34:36.632Z,19.20
2023-04-15T22:37:05.339Z,16.60
2023-04-15T22:39:36.692Z,15.20
2023-04-15T22:42:05.392Z,16.10
2023-04-15T22:44:34.270Z,12.40
2023-04-15T22:47:02.947Z,13.10
2023-04-15T22:49:31.638Z,13.00
2023-04-15T22:52:00.429Z,13.10
2023-04-15T22:54:28.992Z,12.40
2023-04-15T22:56:58.302Z,13.60
2023-04-15T22:59:26.984Z,12.80
2023-04-15T23:01:56.105Z,14.70
2023-04-15T23:04:26.067Z,15.20
2023-04-15T23:06:55.286Z,15.40
2023-04-15T23:09:23.888Z,17.00
2023-04-15T23:11:52.563Z,16.40
2023-04-15T23:14:21.457Z,21.60
2023-04-15T23:16:50.146Z,25.00
2023-04-15T23:19:18.722Z,17.00
2023-04-15T23:21:47.428Z,13.90
2023-04-15T23:24:16.387Z,15.00
2023-04-15T23:26:45.077Z,15.40
2023-04-15T23:29:13.650Z,16.70
2023-04-15T23:31:42.499Z,12.30
2023-04-15T23:34:11.336Z,11.40
2023-04-15T23:36:41.054Z,9.90
2023-04-15T23:39:10.077Z,9.40
2023-04-15T23:41:39.321Z,10.90
2023-04-15T23:44:08.564Z,9.40
2023-04-15T23:46:37.436Z,12.30
2023-04-15T23:49:06.196Z,8.90
2023-04-15T23:51:34.891Z,12.20
2023-04-15T23:54:03.782Z,9.60
2023-04-15T23:56:32.456Z,11.40
2023-04-15T23:59:01.351Z,10.60
